• Join FlightAware (Why Join?)
  • Login
  • US Flag 
06:45AM EDT


 

Airport Tracker/Info


-or-


 

Live Flight TrackerFlight Track Log ✈ ASQ5861 ✈ 23-Apr-2013 ✈ KORD - KABE

Flight Track Log - Related Links

Times and Time Zones

All times are in EDT time to prevent confusion due to time zone crossing. See the ASQ5861 flight status page for this flight to view local times or setup timezone preferences in your user account.

Time Position Orientation Groundspeed Altitude Reporting Facility
EDT Latitude Longitude Course Direction KTS MPH feet Rate Location/Type
11:27PM 42.0167 -87.9167 95° East 185 213 3,000  Level Chicago TRACON
11:28PM 42.0667 -87.8667 37° Northeast 228 262 4,700 2,340 Climbing Chicago TRACON
11:29PM 42.0500 -87.7833 105° East 277 319 7,500 2,100 Climbing Chicago TRACON
11:32PM 42.0083 -87.5411 103° East 324 373 11,700 1,620 Climbing Chicago Center
11:33PM 41.9346 -87.1508 95° East  Level FlightAware Approximate
11:33PM 41.9903 -87.4042 100° East 366 421 12,800  Level Chicago Center
11:34PM 41.9711 -87.2575 100° East 394 453 14,200 1,560 Climbing Chicago Center
11:35PM 41.9508 -87.1108 100° East 398 458 16,000 1,860 Climbing Chicago Center
11:36PM 41.9472 -86.9644 92° East 399 459 18,000 1,920 Climbing Chicago Center
11:37PM 41.9506 -86.8153 88° East 400 460 20,000 1,980 Climbing Chicago Center
11:38PM 41.9514 -86.6606 90° East 406 467 22,100 1,980 Climbing Chicago Center
11:39PM 41.9528 -86.5061 89° East 414 476 24,100 1,920 Climbing Chicago Center
11:40PM 41.9542 -86.3519 89° East 413 475 26,100 1,860 Climbing Chicago Center
11:41PM 41.9533 -86.1958 90° East 417 480 28,000 1,380 Climbing Chicago Center
11:42PM 41.9392 -86.0444 97° East 409 471 29,000 780 Climbing Chicago Center
11:43PM 41.9203 -85.8425 97° East 454 522 29,700 840 Climbing Chicago Center
11:44PM 41.9039 -85.6689 97° East 466 536 30,800 1,080 Climbing Chicago Center
11:45PM 41.8869 -85.4906 97° East 474 545 32,000 1,320 Climbing Chicago Center
11:46PM 41.8694 -85.3117 97° East 478 550 33,600 1,380 Climbing Chicago Center
11:47PM 41.8517 -85.1350 98° East 474 545 34,900 660 Climbing Chicago Center
11:48PM 41.8331 -84.9531 98° East 488 562 35,000  Climbing Chicago Center
11:49PM 41.8133 -84.7608 98° East 518 596 35,000  Level Chicago Center
11:50PM 41.7969 -84.5736 97° East 507 583 35,000  Level Chicago Center
11:51PM 41.7864 -84.3889 94° East 501 577 35,000  Level Chicago Center
11:52PM 41.7700 -84.1833 96° East 498 573 35,000  Level Cleveland Center
11:53PM 41.7569 -83.9931 95° East 504 580 35,000  Level Cleveland Center
11:54PM 41.7458 -83.8061 94° East 504 580 35,000  Level Cleveland Center
11:55PM 41.7322 -83.6161 95° East 504 580 35,000  Level Cleveland Center
11:56PM 41.7200 -83.4375 95° East 498 573 35,000  Level Cleveland Center
11:57PM 41.7058 -83.2533 96° East 493 567 35,000  Level Cleveland Center
11:58PM 41.6911 -83.0692 96° East 493 567 35,000  Level Cleveland Center
11:59PM 41.6761 -82.8850 96° East 498 573 35,000  Level Cleveland Center
12:00AM 41.6650 -82.7150 95° East 509 586 35,000  Level Cleveland Center
12:01AM 41.6494 -82.5283 96° East 509 586 35,000  Level Cleveland Center
12:02AM 41.6358 -82.3419 96° East 503 579 35,000  Level Cleveland Center
12:03AM 41.6219 -82.1553 96° East 503 579 35,000  Level Cleveland Center
12:04AM 41.6056 -81.9689 97° East 503 579 35,000  Level Cleveland Center
12:05AM 41.5869 -81.7631 97° East 503 579 35,000  Level Cleveland Center
12:06AM 41.5722 -81.5711 96° East 503 579 35,000  Level Cleveland Center
12:07AM 41.5547 -81.3878 97° East 503 579 35,000  Level Cleveland Center
12:08AM 41.5372 -81.1989 97° East 503 579 35,000  Level Cleveland Center
12:09AM 41.5194 -81.0103 97° East 503 579 35,000  Level Cleveland Center
12:10AM 41.5011 -80.8244 97° East 503 579 35,000  Level Cleveland Center
12:11AM 41.4867 -80.6636 97° East 503 579 35,000  Level Cleveland Center
12:12AM 41.4681 -80.4833 98° East 498 573 35,000  Level Cleveland Center
12:13AM 41.4511 -80.2978 97° East 503 579 35,000  Level Cleveland Center
12:14AM 41.4336 -80.1150 97° East 498 573 35,000  Level Cleveland Center
12:15AM 41.4119 -79.9242 99° East 492 566 35,000  Level Cleveland Center
12:16AM 41.3942 -79.7472 98° East 486 559 35,000  Level Cleveland Center
12:17AM 41.3783 -79.5869 97° East 486 559 35,000  Level Cleveland Center
12:18AM 41.3578 -79.4075 99° East 486 559 35,000  Level Cleveland Center
12:19AM 41.3369 -79.2114 98° East 486 559 35,000  Level Cleveland Center
12:20AM 41.3158 -79.0294 99° East 486 559 35,000  Level Cleveland Center
12:21AM 41.2989 -78.8639 98° East 491 565 35,000 -420 Level Cleveland Center
12:23AM 41.2519 -78.4544 99° East 487 560 33,700 -720 Descending New York Center
12:24AM 41.2317 -78.2811 99° East 481 554 32,800 -960 Descending New York Center
12:25AM 41.2119 -78.1300 100° East 451 519 31,800 -960 Descending New York Center
12:26AM 41.1911 -77.9622 99° East 444 511 30,900 -900 Descending New York Center
12:27AM 41.1658 -77.7939 101° East 450 518 30,000 -960 Descending New York Center
12:28AM 41.1281 -77.6192 106° East 469 540 29,100 -900 Descending New York Center
12:29AM 41.0939 -77.4478 105° East 475 547 28,200 -960 Descending New York Center
12:30AM 41.0556 -77.2789 107° East 481 554 27,200 -900 Descending New York Center
12:31AM 41.0189 -77.1103 106° East 481 554 26,400 -900 Descending New York Center
12:32AM 40.9819 -76.9419 106° East 481 554 25,500 -960 Descending New York Center
12:33AM 40.9469 -76.7683 105° East 481 554 24,600 -900 Descending New York Center
12:34AM 40.9094 -76.6031 107° East 481 554 23,700 -900 Descending New York Center
12:35AM 40.8756 -76.4436 106° East 464 534 22,800 -1,020 Descending New York Center
12:36AM 40.8425 -76.3011 107° East 443 510 21,800 -1,020 Descending New York Center
12:37AM 40.8117 -76.1614 106° East 409 471 20,800 -1,920 Descending New York Center
12:38AM 40.7878 -76.0417 105° East 389 448 17,900 -3,480 Descending New York Center
12:39AM 40.7567 -75.8939 105° East 377 434 14,000 -3,420 Descending New York Center
12:40AM 40.7283 -75.7769 108° East 377 434 11,100 -2,460 Descending New York Center
12:41AM 40.6494 -75.7219 152° Southeast 287 330 9,100 -2,100 Descending New York Center
12:42AM 40.5817 -75.7006 167° South 263 303 7,000 -2,160 Descending New York Center
12:43AM 40.5225 -75.6692 158° South 251 289 4,900 -1,620 Descending New York Center
12:44AM 40.5456 -75.6133 61° Northeast 131 151 3,800 -1,200 Descending New York Center
12:45AM 40.5814 -75.5558 51° Northeast 172 198 2,500 -1,140 Descending New York Center
12:46AM 40.6103 -75.5111 50° Northeast 165 190 1,600 -600 Descending New York Center
12:47AM 40.6347 -75.4719 51° Northeast 149 171 1,400 3,660 Descending New York Center
12:48AM 40.6633 -75.4328 46° Northeast 149 171 9,000 3,780 Climbing New York Center
12:49AM 40.6900 -75.3936 48° Northeast 149 171 9,000  Level New York Center
12:50AM 40.7183 -75.3544 46° Northeast 149 171 9,000  Level New York Center